createdAt,value
2023-03-06T00:02:06.209Z,6.03
2023-03-06T00:04:36.043Z,6.07
2023-03-06T00:07:03.225Z,6.20
2023-03-06T00:09:30.381Z,6.07
2023-03-06T00:11:57.530Z,5.72
2023-03-06T00:14:24.763Z,5.72
2023-03-06T00:16:55.401Z,5.72
2023-03-06T00:19:23.502Z,5.50
2023-03-06T00:21:50.838Z,6.32
2023-03-06T00:24:18.158Z,5.72
2023-03-06T00:26:45.504Z,6.10
2023-03-06T00:29:12.659Z,6.88
2023-03-06T00:31:39.912Z,7.63
2023-03-06T00:34:07.163Z,6.88
2023-03-06T00:36:34.431Z,6.88
2023-03-06T00:39:01.575Z,6.38
2023-03-06T00:41:28.817Z,6.10
2023-03-06T00:43:55.941Z,6.30
2023-03-06T00:46:23.134Z,7.47
2023-03-06T00:48:50.326Z,7.25
2023-03-06T00:51:19.684Z,7.57
2023-03-06T00:53:46.845Z,8.52
2023-03-06T00:56:14.055Z,7.38
2023-03-06T00:58:41.853Z,7.60
2023-03-06T01:01:09.029Z,7.40
2023-03-06T01:03:36.183Z,8.85
2023-03-06T01:06:03.622Z,8.43
2023-03-06T01:08:30.854Z,8.18
2023-03-06T01:10:58.071Z,8.02
2023-03-06T01:13:25.270Z,8.00
2023-03-06T01:15:53.485Z,8.10
2023-03-06T01:18:20.628Z,7.50
2023-03-06T01:20:47.764Z,8.13
2023-03-06T01:23:14.969Z,8.00
2023-03-06T01:25:42.240Z,7.82
2023-03-06T01:28:09.459Z,8.20
2023-03-06T01:30:36.668Z,7.88
2023-03-06T01:33:04.075Z,7.18
2023-03-06T01:35:31.583Z,7.32
2023-03-06T01:37:58.725Z,7.05
2023-03-06T01:40:25.953Z,7.30
2023-03-06T01:42:53.108Z,7.35
2023-03-06T01:45:20.320Z,7.28
2023-03-06T01:47:47.532Z,6.38
2023-03-06T01:50:14.778Z,6.00
2023-03-06T01:52:45.259Z,6.80
2023-03-06T01:55:20.860Z,6.45
2023-03-06T01:57:51.213Z,6.90
2023-03-06T02:00:19.584Z,6.82
2023-03-06T02:02:50.703Z,6.65
2023-03-06T02:05:17.953Z,7.88
2023-03-06T02:07:45.424Z,7.20
2023-03-06T02:10:13.115Z,7.20
2023-03-06T02:12:42.313Z,7.57
2023-03-06T02:15:09.636Z,7.88
2023-03-06T02:17:37.460Z,6.85
2023-03-06T02:20:26.055Z,7.40
2023-03-06T02:23:08.560Z,6.53
2023-03-06T02:25:46.117Z,6.90
2023-03-06T02:28:14.952Z,7.60
2023-03-06T02:30:43.320Z,7.32
2023-03-06T02:33:17.986Z,7.10
2023-03-06T02:35:50.407Z,6.45
2023-03-06T02:38:19.408Z,6.63
2023-03-06T02:40:48.646Z,7.22
2023-03-06T02:43:17.224Z,6.70
2023-03-06T02:45:48.634Z,7.18
2023-03-06T02:48:16.526Z,7.05
2023-03-06T02:50:44.081Z,7.50
2023-03-06T02:53:11.983Z,6.97
2023-03-06T02:55:39.172Z,7.07
2023-03-06T02:58:06.613Z,7.97
2023-03-06T03:00:34.849Z,7.18
2023-03-06T03:03:02.652Z,7.78
2023-03-06T03:05:29.812Z,6.72
2023-03-06T03:07:56.949Z,7.15
2023-03-06T03:10:24.116Z,6.05
2023-03-06T03:12:51.790Z,6.40
2023-03-06T03:15:19.195Z,6.15
2023-03-06T03:17:46.428Z,5.97
2023-03-06T03:20:15.316Z,6.35
2023-03-06T03:22:42.508Z,6.55
2023-03-06T03:25:09.995Z,6.38
2023-03-06T03:27:37.254Z,7.10
2023-03-06T03:30:04.525Z,6.15
2023-03-06T03:32:31.897Z,6.97
2023-03-06T03:34:59.171Z,6.00
2023-03-06T03:37:26.424Z,6.15
2023-03-06T03:39:53.686Z,6.93
2023-03-06T03:42:21.036Z,7.38
2023-03-06T03:44:48.239Z,7.13
2023-03-06T03:47:15.466Z,8.05
2023-03-06T03:49:42.753Z,8.15
2023-03-06T03:52:10.034Z,8.90
2023-03-06T03:54:37.295Z,8.95
2023-03-06T03:57:04.471Z,8.50
2023-03-06T03:59:31.706Z,9.43
2023-03-06T04:01:59.514Z,9.50
2023-03-06T04:04:26.843Z,9.68
2023-03-06T04:06:54.064Z,12.95
2023-03-06T04:09:21.250Z,13.30
2023-03-06T04:11:48.396Z,13.95
2023-03-06T04:14:15.607Z,12.05
2023-03-06T04:16:42.707Z,13.43
2023-03-06T04:19:12.330Z,10.88
2023-03-06T04:21:39.564Z,14.73
2023-03-06T04:24:06.961Z,13.18
2023-03-06T04:26:34.176Z,12.95
2023-03-06T04:29:01.342Z,12.45
2023-03-06T04:31:28.563Z,13.27
2023-03-06T04:33:55.736Z,10.85
2023-03-06T04:36:28.074Z,9.85
2023-03-06T04:38:55.306Z,10.27
2023-03-06T04:41:23.500Z,9.35
2023-03-06T04:43:50.931Z,10.45
2023-03-06T04:46:18.136Z,10.68
2023-03-06T04:48:45.276Z,9.55
2023-03-06T04:51:13.393Z,9.75
2023-03-06T04:53:40.729Z,11.48
2023-03-06T04:56:08.300Z,12.45
2023-03-06T04:58:35.444Z,9.88
2023-03-06T05:01:02.698Z,9.05
2023-03-06T05:03:29.936Z,10.50
2023-03-06T05:05:57.152Z,11.70
2023-03-06T05:08:24.335Z,12.05
2023-03-06T05:10:56.285Z,12.27
2023-03-06T05:13:23.483Z,9.98
2023-03-06T05:15:50.811Z,10.18
2023-03-06T05:18:18.117Z,9.27
2023-03-06T05:20:45.567Z,9.77
2023-03-06T05:23:12.839Z,10.50
2023-03-06T05:25:40.546Z,10.80
2023-03-06T05:28:07.881Z,10.82
2023-03-06T05:30:35.534Z,11.00
2023-03-06T05:33:02.907Z,9.95
2023-03-06T05:35:30.164Z,10.65
2023-03-06T05:37:57.504Z,9.80
2023-03-06T05:40:24.665Z,10.80
2023-03-06T05:42:51.883Z,10.27
2023-03-06T05:45:19.726Z,11.07
2023-03-06T05:47:46.951Z,12.18
2023-03-06T05:50:14.871Z,12.02
2023-03-06T05:52:42.396Z,11.45
2023-03-06T05:55:11.401Z,12.10
2023-03-06T05:57:38.593Z,12.02
2023-03-06T06:00:06.301Z,12.85
2023-03-06T06:02:33.476Z,12.13
2023-03-06T06:05:01.853Z,12.57
2023-03-06T06:07:29.101Z,14.98
2023-03-06T06:09:56.292Z,22.17
2023-03-06T06:12:23.437Z,14.70
2023-03-06T06:14:50.885Z,12.48
2023-03-06T06:17:18.119Z,14.15
2023-03-06T06:19:45.331Z,13.43
2023-03-06T06:22:12.583Z,13.77
2023-03-06T06:24:40.032Z,12.73
2023-03-06T06:27:07.207Z,12.60
2023-03-06T06:29:34.409Z,13.85
2023-03-06T06:32:02.106Z,15.98
2023-03-06T06:34:30.536Z,14.63
2023-03-06T06:36:57.754Z,15.90
2023-03-06T06:39:25.485Z,15.63
2023-03-06T06:42:05.954Z,13.85
2023-03-06T06:44:40.080Z,13.02
2023-03-06T06:47:24.924Z,13.50
2023-03-06T06:49:53.715Z,13.80
2023-03-06T06:52:20.987Z,15.85
2023-03-06T06:54:48.307Z,13.88
2023-03-06T06:57:15.761Z,15.63
2023-03-06T06:59:43.153Z,16.33
2023-03-06T07:02:12.535Z,14.98
2023-03-06T07:04:52.357Z,15.20
2023-03-06T07:07:27.381Z,15.25
2023-03-06T07:09:55.628Z,14.48
2023-03-06T07:12:22.851Z,13.93
2023-03-06T07:14:50.049Z,13.30
2023-03-06T07:17:17.236Z,14.13
2023-03-06T07:19:44.519Z,13.52
2023-03-06T07:22:11.763Z,14.00
2023-03-06T07:24:46.969Z,15.82
2023-03-06T07:27:14.249Z,23.45
2023-03-06T07:29:43.387Z,17.58
2023-03-06T07:32:10.865Z,17.42
2023-03-06T07:34:38.061Z,15.25
2023-03-06T07:37:05.280Z,14.18
2023-03-06T07:39:32.528Z,14.93
2023-03-06T07:41:59.794Z,16.20
2023-03-06T07:44:27.197Z,14.07
2023-03-06T07:46:54.345Z,14.75
2023-03-06T07:49:21.578Z,13.82
2023-03-06T07:51:48.781Z,14.05
2023-03-06T07:54:16.048Z,13.82
2023-03-06T07:56:43.352Z,13.50
2023-03-06T07:59:11.741Z,15.50
2023-03-06T08:01:40.307Z,19.80
2023-03-06T08:04:07.802Z,16.23
2023-03-06T08:06:35.045Z,14.18
2023-03-06T08:09:02.219Z,15.55
2023-03-06T08:11:30.398Z,24.15
2023-03-06T08:13:58.565Z,14.98
2023-03-06T08:16:27.176Z,12.23
2023-03-06T08:18:54.749Z,13.93
2023-03-06T08:21:23.945Z,13.50
2023-03-06T08:23:51.721Z,12.32
2023-03-06T08:26:20.109Z,11.55
2023-03-06T08:28:47.323Z,10.63
2023-03-06T08:31:21.765Z,10.40
2023-03-06T08:33:48.946Z,8.77
2023-03-06T08:36:16.097Z,8.43
2023-03-06T08:38:43.300Z,8.82
2023-03-06T08:41:10.436Z,8.48
2023-03-06T08:43:37.649Z,9.48
2023-03-06T08:46:05.746Z,8.90
2023-03-06T08:48:32.997Z,7.70
2023-03-06T08:51:00.178Z,7.32
2023-03-06T08:53:41.777Z,7.00
2023-03-06T08:56:15.399Z,7.45
2023-03-06T08:58:42.573Z,6.13
2023-03-06T09:01:13.819Z,6.63
2023-03-06T09:03:41.174Z,6.13
2023-03-06T09:06:08.303Z,5.60
2023-03-06T09:08:35.641Z,5.93
2023-03-06T09:11:02.754Z,5.35
2023-03-06T09:13:29.926Z,4.97
2023-03-06T09:15:57.072Z,5.07
2023-03-06T09:18:24.665Z,4.22
2023-03-06T09:20:51.804Z,4.25
2023-03-06T09:23:18.898Z,4.18
2023-03-06T09:25:46.321Z,3.67
2023-03-06T09:28:13.464Z,3.97
2023-03-06T09:30:41.177Z,3.17
2023-03-06T09:33:08.347Z,3.97
2023-03-06T09:35:35.708Z,3.33
2023-03-06T09:38:02.887Z,3.30
2023-03-06T09:40:48.455Z,3.63
2023-03-06T09:43:20.853Z,3.38
2023-03-06T09:45:48.083Z,3.30
2023-03-06T09:48:16.357Z,2.85
2023-03-06T09:50:46.224Z,2.70
2023-03-06T09:53:32.413Z,2.75
2023-03-06T09:56:04.210Z,3.20
2023-03-06T09:58:33.952Z,2.67
2023-03-06T10:01:19.615Z,2.88
2023-03-06T10:03:50.233Z,3.10
2023-03-06T10:06:17.329Z,2.85
2023-03-06T10:08:50.304Z,2.75
2023-03-06T10:11:27.040Z,2.63
2023-03-06T10:13:58.203Z,2.90
2023-03-06T10:16:30.058Z,2.70
2023-03-06T10:19:00.862Z,2.90
2023-03-06T10:21:31.364Z,2.78
2023-03-06T10:24:07.707Z,2.50
2023-03-06T10:26:38.574Z,2.50
2023-03-06T10:29:11.955Z,2.65
2023-03-06T10:31:41.130Z,2.30
2023-03-06T10:34:17.405Z,3.10
2023-03-06T10:36:44.850Z,3.53
2023-03-06T10:39:16.786Z,3.40
2023-03-06T10:41:45.990Z,3.38
2023-03-06T10:44:13.406Z,3.70
2023-03-06T10:46:42.561Z,3.60
2023-03-06T10:49:15.914Z,3.45
2023-03-06T10:51:55.875Z,3.53
2023-03-06T10:54:23.015Z,3.97
2023-03-06T10:56:50.190Z,4.13
2023-03-06T10:59:18.917Z,4.70
2023-03-06T11:01:50.308Z,4.55
2023-03-06T11:04:43.930Z,4.10
2023-03-06T11:07:19.007Z,4.63
2023-03-06T11:09:58.496Z,4.47
2023-03-06T11:12:28.626Z,4.53
2023-03-06T11:15:08.371Z,4.82
2023-03-06T11:17:39.296Z,4.80
2023-03-06T11:20:15.800Z,5.35
2023-03-06T11:22:45.353Z,5.05
2023-03-06T11:25:15.712Z,4.88
2023-03-06T11:27:44.803Z,4.30
2023-03-06T11:30:23.009Z,4.60
2023-03-06T11:32:54.056Z,4.93
2023-03-06T11:35:23.250Z,5.20
2023-03-06T11:37:54.047Z,4.70
2023-03-06T11:40:28.313Z,4.78
2023-03-06T11:43:07.709Z,4.72
2023-03-06T11:45:43.226Z,4.88
2023-03-06T11:48:19.342Z,4.30
2023-03-06T11:50:51.574Z,4.75
2023-03-06T11:53:18.776Z,4.75
2023-03-06T11:56:00.088Z,4.88
2023-03-06T11:58:36.442Z,5.00
2023-03-06T12:01:24.703Z,4.55
2023-03-06T12:03:54.730Z,4.93
2023-03-06T12:06:33.119Z,6.15
2023-03-06T12:09:11.422Z,5.72
2023-03-06T12:11:54.377Z,6.25
2023-03-06T12:14:25.989Z,5.77
2023-03-06T12:17:06.884Z,5.68
2023-03-06T12:19:34.308Z,5.53
2023-03-06T12:22:21.930Z,6.00
2023-03-06T12:25:08.086Z,5.72
2023-03-06T12:27:41.148Z,5.93
2023-03-06T12:30:19.377Z,5.82
2023-03-06T12:33:12.974Z,5.13
2023-03-06T12:36:04.219Z,4.72
2023-03-06T12:38:47.932Z,4.55
2023-03-06T12:41:27.461Z,4.55
2023-03-06T12:43:54.598Z,4.63
2023-03-06T12:46:23.687Z,4.07
2023-03-06T12:49:00.213Z,5.28
2023-03-06T12:51:27.465Z,4.50
2023-03-06T12:53:55.404Z,4.20
2023-03-06T12:56:22.745Z,6.25
2023-03-06T12:58:49.834Z,4.85
2023-03-06T13:01:35.924Z,3.92
2023-03-06T13:04:22.114Z,3.95
2023-03-06T13:06:55.674Z,4.05
2023-03-06T13:11:57.521Z,2.83
2023-03-06T13:14:32.900Z,2.92
2023-03-06T13:17:23.171Z,3.22
2023-03-06T13:20:10.332Z,4.05
2023-03-06T13:22:37.500Z,3.85
2023-03-06T13:25:20.103Z,3.75
2023-03-06T13:28:03.144Z,3.38
2023-03-06T13:30:39.359Z,3.83
2023-03-06T13:33:26.115Z,4.15
2023-03-06T13:35:53.545Z,3.80
2023-03-06T13:38:30.770Z,3.60
2023-03-06T13:41:16.746Z,4.68
2023-03-06T13:43:45.462Z,3.92
2023-03-06T13:46:36.262Z,4.10
2023-03-06T13:49:06.536Z,4.55
2023-03-06T13:51:45.470Z,4.07
2023-03-06T13:54:12.734Z,4.13
2023-03-06T13:56:52.128Z,4.65
2023-03-06T13:59:25.780Z,3.83
2023-03-06T14:02:02.027Z,4.47
2023-03-06T14:04:42.842Z,4.55
2023-03-06T14:07:26.525Z,4.78
2023-03-06T14:10:09.713Z,4.80
2023-03-06T14:12:38.250Z,4.72
2023-03-06T14:15:35.017Z,4.70
2023-03-06T14:18:04.427Z,4.53
2023-03-06T14:20:42.285Z,5.75
2023-03-06T14:23:21.847Z,4.85
2023-03-06T14:25:52.305Z,5.25
2023-03-06T14:28:29.786Z,4.72
2023-03-06T14:30:57.930Z,4.75
2023-03-06T14:33:32.837Z,5.05
2023-03-06T14:36:01.904Z,4.60
2023-03-06T14:38:31.492Z,7.78
2023-03-06T14:40:58.742Z,5.40
2023-03-06T14:43:27.103Z,5.10
2023-03-06T14:45:58.584Z,5.15
2023-03-06T14:48:27.920Z,5.10
2023-03-06T14:50:56.783Z,5.65
2023-03-06T14:53:24.202Z,5.88
2023-03-06T14:56:01.790Z,5.28
2023-03-06T14:58:31.928Z,5.90
2023-03-06T15:01:02.122Z,6.13
2023-03-06T15:03:34.943Z,5.70
2023-03-06T15:06:02.387Z,5.47
2023-03-06T15:08:32.562Z,5.32
2023-03-06T15:11:03.360Z,5.22
2023-03-06T15:13:31.305Z,5.80
2023-03-06T15:16:06.282Z,5.72
2023-03-06T15:18:43.988Z,5.55
2023-03-06T15:21:19.021Z,5.70
2023-03-06T15:23:47.537Z,5.88
2023-03-06T15:26:31.461Z,6.32
2023-03-06T15:29:09.517Z,6.57
2023-03-06T15:31:38.313Z,6.75
2023-03-06T15:34:09.783Z,7.20
2023-03-06T15:36:44.219Z,6.55
2023-03-06T15:39:27.739Z,6.40
2023-03-06T15:41:59.055Z,6.22
2023-03-06T15:44:26.473Z,6.25
2023-03-06T15:47:06.654Z,6.28
2023-03-06T15:49:37.063Z,7.07
2023-03-06T15:52:04.439Z,6.07
2023-03-06T15:54:33.017Z,6.65
2023-03-06T15:57:00.388Z,5.82
2023-03-06T15:59:32.861Z,5.72
2023-03-06T16:02:01.337Z,5.65
2023-03-06T16:04:28.728Z,5.88
2023-03-06T16:06:55.926Z,5.40
2023-03-06T16:09:23.737Z,5.65
2023-03-06T16:11:50.923Z,5.82
2023-03-06T16:14:23.764Z,5.20
2023-03-06T16:16:54.744Z,6.82
2023-03-06T16:19:26.288Z,6.82
2023-03-06T16:21:57.859Z,5.80
2023-03-06T16:24:26.288Z,6.40
2023-03-06T16:26:54.924Z,6.25
2023-03-06T16:29:23.752Z,6.28
2023-03-06T16:31:51.031Z,6.65
2023-03-06T16:34:19.928Z,7.18
2023-03-06T16:36:48.096Z,6.43
2023-03-06T16:39:19.741Z,7.53
2023-03-06T16:41:47.237Z,7.10
2023-03-06T16:44:14.370Z,7.60
2023-03-06T16:46:48.821Z,5.82
2023-03-06T16:49:17.296Z,6.90
2023-03-06T16:51:45.320Z,7.05
2023-03-06T16:54:12.850Z,7.03
2023-03-06T16:56:40.079Z,7.18
2023-03-06T16:59:07.294Z,9.30
2023-03-06T17:01:34.628Z,7.20
2023-03-06T17:04:01.831Z,8.27
2023-03-06T17:06:29.173Z,9.25
2023-03-06T17:08:58.298Z,8.23
2023-03-06T17:11:25.538Z,11.23
2023-03-06T17:13:53.863Z,9.95
2023-03-06T17:16:21.479Z,8.48
2023-03-06T17:18:49.737Z,8.15
2023-03-06T17:21:20.155Z,7.22
2023-03-06T17:23:47.748Z,7.65
2023-03-06T17:26:18.163Z,7.45
2023-03-06T17:28:45.568Z,8.13
2023-03-06T17:31:21.344Z,7.65
2023-03-06T17:33:49.098Z,7.88
2023-03-06T17:36:17.263Z,8.00
2023-03-06T17:38:44.433Z,7.68
2023-03-06T17:41:12.803Z,8.20
2023-03-06T17:43:40.009Z,8.15
2023-03-06T17:46:08.356Z,7.28
2023-03-06T17:48:35.958Z,8.70
2023-03-06T17:51:03.472Z,9.20
2023-03-06T17:53:30.712Z,8.40
2023-03-06T17:56:00.728Z,8.90
2023-03-06T17:58:28.259Z,9.07
2023-03-06T18:00:55.556Z,9.80
2023-03-06T18:03:22.979Z,9.05
2023-03-06T18:06:00.255Z,8.27
2023-03-06T18:08:27.428Z,9.30
2023-03-06T18:10:59.678Z,8.70
2023-03-06T18:13:27.506Z,9.13
2023-03-06T18:15:54.822Z,8.63
2023-03-06T18:18:22.003Z,8.90
2023-03-06T18:20:49.177Z,9.02
2023-03-06T18:23:16.477Z,9.05
2023-03-06T18:25:43.749Z,8.43
2023-03-06T18:28:10.973Z,9.73
2023-03-06T18:30:39.097Z,9.25
2023-03-06T18:33:06.257Z,9.75
2023-03-06T18:35:36.548Z,9.65
2023-03-06T18:38:03.778Z,9.40
2023-03-06T18:40:30.887Z,10.27
2023-03-06T18:42:58.516Z,9.93
2023-03-06T18:45:25.745Z,9.55
2023-03-06T18:47:53.102Z,9.68
2023-03-06T18:50:20.300Z,9.90
2023-03-06T18:52:47.533Z,9.55
2023-03-06T18:55:14.697Z,8.95
2023-03-06T18:57:41.985Z,9.18
2023-03-06T19:00:09.705Z,8.93
2023-03-06T19:02:36.859Z,9.63
2023-03-06T19:05:04.646Z,9.38
2023-03-06T19:07:31.802Z,9.50
2023-03-06T19:09:59.276Z,9.63
2023-03-06T19:12:26.453Z,8.55
2023-03-06T19:14:53.635Z,8.88
2023-03-06T19:17:20.876Z,10.35
2023-03-06T19:19:50.355Z,12.43
2023-03-06T19:22:17.538Z,18.88
2023-03-06T19:24:46.836Z,11.23
2023-03-06T19:27:14.081Z,12.32
2023-03-06T19:29:41.928Z,12.85
2023-03-06T19:32:09.229Z,14.85
2023-03-06T19:34:36.502Z,18.52
2023-03-06T19:37:03.991Z,15.63
2023-03-06T19:39:33.993Z,13.00
2023-03-06T19:42:01.142Z,11.52
2023-03-06T19:44:28.292Z,11.30
2023-03-06T19:46:55.479Z,11.23
2023-03-06T19:49:22.641Z,10.82
2023-03-06T19:51:49.813Z,10.00
2023-03-06T19:54:17.119Z,11.00
2023-03-06T19:56:44.574Z,11.48
2023-03-06T19:59:11.746Z,10.88
2023-03-06T20:01:39.678Z,10.80
2023-03-06T20:04:06.994Z,10.90
2023-03-06T20:06:36.680Z,11.50
2023-03-06T20:09:05.943Z,10.85
2023-03-06T20:11:33.148Z,12.13
2023-03-06T20:14:01.737Z,11.60
2023-03-06T20:16:29.609Z,11.65
2023-03-06T20:18:58.879Z,11.68
2023-03-06T20:21:26.605Z,12.02
2023-03-06T20:23:54.531Z,12.55
2023-03-06T20:26:21.792Z,12.10
2023-03-06T20:28:49.163Z,11.55
2023-03-06T20:31:17.988Z,12.93
2023-03-06T20:33:45.685Z,11.88
2023-03-06T20:36:17.080Z,12.57
2023-03-06T20:38:44.777Z,12.60
2023-03-06T20:41:15.702Z,12.07
2023-03-06T20:43:43.051Z,16.35
2023-03-06T20:46:10.836Z,12.07
2023-03-06T20:48:38.108Z,12.68
2023-03-06T20:51:07.129Z,12.88
2023-03-06T20:53:35.260Z,14.48
2023-03-06T20:56:02.461Z,14.13
2023-03-06T20:58:31.816Z,16.13
2023-03-06T21:01:01.395Z,14.50
2023-03-06T21:03:29.739Z,14.15
2023-03-06T21:05:57.127Z,14.10
2023-03-06T21:08:24.483Z,13.77
2023-03-06T21:10:52.150Z,13.27
2023-03-06T21:13:19.316Z,14.15
2023-03-06T21:15:47.632Z,15.55
2023-03-06T21:18:15.042Z,14.57
2023-03-06T21:20:42.383Z,15.05
2023-03-06T21:23:09.652Z,13.65
2023-03-06T21:25:36.794Z,13.48
2023-03-06T21:28:03.993Z,14.30
2023-03-06T21:30:31.173Z,13.00
2023-03-06T21:32:58.341Z,14.05
2023-03-06T21:35:25.572Z,14.43
2023-03-06T21:37:52.878Z,13.13
2023-03-06T21:40:20.352Z,13.38
2023-03-06T21:42:47.628Z,13.27
2023-03-06T21:45:14.846Z,14.30
2023-03-06T21:47:42.242Z,12.82
2023-03-06T21:50:10.521Z,12.40
2023-03-06T21:52:37.792Z,13.30
2023-03-06T21:55:05.402Z,13.50
2023-03-06T21:57:32.721Z,13.43
2023-03-06T22:00:00.154Z,13.45
2023-03-06T22:02:27.442Z,13.02
2023-03-06T22:04:54.619Z,12.93
2023-03-06T22:07:22.899Z,12.93
2023-03-06T22:09:53.053Z,13.38
2023-03-06T22:12:20.544Z,13.02
2023-03-06T22:14:48.093Z,14.20
2023-03-06T22:17:15.227Z,14.48
2023-03-06T22:19:42.420Z,13.48
2023-03-06T22:22:10.756Z,14.00
2023-03-06T22:24:37.979Z,14.25
2023-03-06T22:27:05.293Z,13.73
2023-03-06T22:29:32.401Z,14.27
2023-03-06T22:31:59.624Z,15.02
2023-03-06T22:34:26.882Z,13.68
2023-03-06T22:36:54.090Z,14.25
2023-03-06T22:39:21.302Z,14.57
2023-03-06T22:41:48.568Z,15.73
2023-03-06T22:44:17.298Z,14.70
2023-03-06T22:46:44.822Z,15.20
2023-03-06T22:49:12.686Z,14.77
2023-03-06T22:51:40.303Z,14.95
2023-03-06T22:54:08.370Z,14.30
2023-03-06T22:56:36.133Z,15.73
2023-03-06T22:59:03.443Z,15.05
2023-03-06T23:01:31.316Z,15.00
2023-03-06T23:03:59.926Z,14.88
2023-03-06T23:06:28.541Z,15.95
2023-03-06T23:09:06.551Z,15.43
2023-03-06T23:11:34.298Z,15.60
2023-03-06T23:14:01.922Z,15.60
2023-03-06T23:16:29.361Z,16.05
2023-03-06T23:18:56.634Z,15.15
2023-03-06T23:21:24.368Z,15.52
2023-03-06T23:23:52.613Z,15.20
2023-03-06T23:26:21.455Z,16.45
2023-03-06T23:28:48.793Z,16.13
2023-03-06T23:31:17.813Z,16.30
2023-03-06T23:33:45.254Z,16.02
2023-03-06T23:36:13.732Z,16.17
2023-03-06T23:38:41.316Z,15.15
2023-03-06T23:41:09.871Z,15.88
2023-03-06T23:43:37.260Z,14.80
2023-03-06T23:46:05.154Z,15.93
2023-03-06T23:48:32.663Z,15.52
2023-03-06T23:51:00.584Z,15.50
2023-03-06T23:53:27.756Z,15.10
2023-03-06T23:55:55.240Z,15.43
2023-03-06T23:58:22.411Z,15.18
